createdAt,value
2019-05-10T05:02:02.507Z,76.41
2019-05-10T06:14:03.861Z,70.59
2019-05-10T06:32:05.768Z,69.65
2019-05-10T07:23:51.333Z,66.41
2019-05-10T07:26:27.440Z,66.35
2019-05-10T07:29:10.267Z,65.82
2019-05-10T07:31:38.856Z,66.02
2019-05-10T07:38:35.029Z,65.70
2019-05-10T07:51:44.919Z,66.11
2019-05-10T07:54:19.604Z,65.38
2019-05-10T07:57:34.015Z,65.50
2019-05-10T07:59:52.533Z,65.36
2019-05-10T08:09:31.521Z,64.59
2019-05-10T08:16:20.321Z,63.62
2019-05-10T08:18:49.733Z,63.68
2019-05-10T08:21:23.931Z,63.35
2019-05-10T08:24:03.908Z,63.44
2019-05-10T08:37:37.406Z,64.80
2019-05-10T08:40:07.868Z,64.61
2019-05-10T08:42:45.336Z,64.93
2019-05-10T08:45:38.903Z,64.87
2019-05-10T08:52:13.940Z,63.39
2019-05-10T08:54:45.856Z,63.92
2019-05-10T08:57:18.737Z,63.70
2019-05-10T08:59:54.202Z,62.77
2019-05-10T09:02:28.875Z,62.20
2019-05-10T09:04:56.832Z,61.78
2019-05-10T09:07:29.468Z,61.38
2019-05-10T09:18:22.899Z,59.88
2019-05-10T09:21:02.619Z,59.74
2019-05-10T09:23:29.807Z,59.51
2019-05-10T09:26:09.527Z,59.09
2019-05-10T09:28:36.126Z,59.33
2019-05-10T09:31:18.910Z,58.68
2019-05-10T09:33:49.166Z,58.02
2019-05-10T09:36:15.843Z,58.13
2019-05-10T09:38:48.407Z,58.10
2019-05-10T09:41:19.450Z,56.50
2019-05-10T09:43:53.586Z,56.40
2019-05-10T09:46:26.561Z,56.30
2019-05-10T09:49:06.180Z,56.82
2019-05-10T09:55:27.841Z,57.41
2019-05-10T10:01:54.407Z,56.21
2019-05-10T10:04:27.983Z,57.39
2019-05-10T10:06:58.390Z,56.95
2019-05-10T10:09:33.684Z,56.24
2019-05-10T10:12:03.252Z,55.92
2019-05-10T10:14:39.478Z,55.54
2019-05-10T10:21:02.579Z,55.92
2019-05-10T10:23:37.729Z,56.21
2019-05-10T10:26:12.556Z,55.53
2019-05-10T10:28:41.885Z,54.27
2019-05-10T10:31:26.192Z,54.31
2019-05-10T10:33:57.829Z,54.34
2019-05-10T10:36:21.597Z,54.45
2019-05-10T10:38:53.011Z,53.71
2019-05-10T10:41:31.206Z,53.46
2019-05-10T10:43:58.590Z,53.52
2019-05-10T10:46:29.709Z,53.26
2019-05-10T10:49:02.885Z,53.91
2019-05-10T10:51:37.968Z,53.27
2019-05-10T10:54:12.535Z,53.44
2019-05-10T10:56:42.762Z,52.65
2019-05-10T10:59:13.870Z,53.16
2019-05-10T11:01:50.566Z,52.50
2019-05-10T11:04:20.148Z,52.38
2019-05-10T11:07:01.361Z,52.72
2019-05-10T11:09:24.141Z,51.42
2019-05-10T11:11:56.765Z,50.90
2019-05-10T11:14:31.994Z,50.96
2019-05-10T11:17:01.210Z,51.22
2019-05-10T11:19:33.209Z,52.03
2019-05-10T11:22:09.602Z,52.06
2019-05-10T11:24:37.163Z,52.09
2019-05-10T11:27:13.116Z,50.84
2019-05-10T11:29:42.816Z,50.69
2019-05-10T11:32:18.618Z,53.00
2019-05-10T11:34:50.543Z,55.63
2019-05-10T11:37:31.037Z,56.75
2019-05-10T11:39:54.427Z,57.35
2019-05-10T11:42:25.532Z,57.60
2019-05-10T11:44:57.596Z,58.71
2019-05-10T11:47:31.090Z,58.63
2019-05-10T11:50:06.259Z,59.47
2019-05-10T11:52:37.634Z,59.13
2019-05-10T11:55:11.472Z,59.66
2019-05-10T11:57:44.077Z,59.36
2019-05-10T12:00:28.078Z,59.24
2019-05-10T12:03:06.960Z,59.24
2019-05-10T12:05:28.531Z,59.88
2019-05-10T12:08:01.978Z,60.25
2019-05-10T12:10:43.098Z,60.71
2019-05-10T12:13:18.602Z,60.54
2019-05-10T12:15:43.067Z,60.52
2019-05-10T12:18:15.057Z,60.08
2019-05-10T12:21:00.292Z,60.27
2019-05-10T12:23:29.482Z,60.43
2019-05-10T12:27:08.133Z,60.45
2019-05-10T12:28:35.303Z,60.64
2019-05-10T12:31:12.284Z,60.19
2019-05-10T12:33:46.951Z,60.29
2019-05-10T12:36:26.021Z,60.39
2019-05-10T12:38:52.559Z,60.37
2019-05-10T12:41:23.667Z,60.26
2019-05-10T12:44:02.804Z,60.58
2019-05-10T12:46:27.527Z,60.61
2019-05-10T12:49:02.051Z,60.78
2019-05-10T12:51:33.981Z,60.55
2019-05-10T12:54:05.073Z,60.26
2019-05-10T12:56:43.864Z,60.42
2019-05-10T12:59:09.869Z,60.29
2019-05-10T13:01:41.024Z,60.29
2019-05-10T13:04:16.998Z,60.35
2019-05-10T13:06:49.259Z,60.13
2019-05-10T13:09:36.088Z,61.04
2019-05-10T13:12:03.011Z,61.59
2019-05-10T13:14:29.417Z,61.94
2019-05-10T13:17:09.073Z,61.79
2019-05-10T13:19:35.009Z,61.48
2019-05-10T13:29:08.120Z,62.87
2019-05-10T13:31:43.036Z,62.92
2019-05-10T13:34:14.721Z,63.29
2019-05-10T13:36:45.994Z,63.09
2019-05-10T13:39:19.240Z,63.54
2019-05-10T13:41:51.460Z,64.14
2019-05-10T13:44:24.361Z,63.89
2019-05-10T13:46:55.425Z,64.03
2019-05-10T13:49:37.852Z,64.10
2019-05-10T13:52:12.019Z,63.97
2019-05-10T13:54:43.930Z,64.01
2019-05-10T13:57:15.027Z,63.91
2019-05-10T13:59:49.106Z,64.34
2019-05-10T14:02:22.826Z,64.06
2019-05-10T14:04:53.093Z,64.08
2019-05-10T14:07:25.737Z,63.92
2019-05-10T14:09:57.715Z,63.97
2019-05-10T14:12:28.858Z,63.93
2019-05-10T14:15:02.404Z,64.36
2019-05-10T14:17:34.469Z,64.30
2019-05-10T14:20:19.723Z,64.87
2019-05-10T14:22:41.456Z,65.25
2019-05-10T14:25:13.604Z,65.05
2019-05-10T14:27:47.373Z,65.24
2019-05-10T14:30:19.407Z,65.30
2019-05-10T14:32:50.545Z,65.75
2019-05-10T14:35:24.842Z,65.59
2019-05-10T14:38:07.052Z,65.52
2019-05-10T14:40:30.826Z,65.68
2019-05-10T14:43:05.199Z,65.85
2019-05-10T14:45:39.340Z,65.71
2019-05-10T14:48:10.410Z,65.98
2019-05-10T14:50:46.093Z,65.80
2019-05-10T14:53:14.278Z,65.57
2019-05-10T14:55:49.018Z,65.77
2019-05-10T14:58:20.335Z,65.61
2019-05-10T15:00:54.458Z,65.64
2019-05-10T15:03:25.534Z,65.45
2019-05-10T15:06:01.396Z,65.75
2019-05-10T15:08:29.359Z,65.62
2019-05-10T15:11:00.466Z,65.58
2019-05-10T15:13:34.762Z,65.49
2019-05-10T15:16:11.989Z,65.33
2019-05-10T15:18:42.864Z,65.53
2019-05-10T15:21:17.138Z,65.93
2019-05-10T15:23:48.184Z,65.86
2019-05-10T15:26:20.093Z,65.28
2019-05-10T15:28:52.653Z,65.01
2019-05-10T15:31:29.092Z,65.13
2019-05-10T15:33:56.589Z,65.35
2019-05-10T15:36:31.604Z,65.88
2019-05-10T15:39:04.526Z,66.12
2019-05-10T15:41:36.660Z,66.32
2019-05-10T15:44:08.760Z,66.69
2019-05-10T15:46:42.301Z,66.97
2019-05-10T15:49:22.689Z,67.13
2019-05-10T15:51:48.959Z,67.03
2019-05-10T15:54:22.761Z,67.00
2019-05-10T15:56:55.654Z,67.10
2019-05-10T15:59:26.982Z,67.21
2019-05-10T16:01:58.075Z,67.12
2019-05-10T16:04:29.190Z,67.12
2019-05-10T16:07:03.296Z,67.14
2019-05-10T16:09:34.404Z,67.24
2019-05-10T16:12:08.675Z,67.16
2019-05-10T16:14:45.752Z,67.10
2019-05-10T16:17:23.165Z,67.33
2019-05-10T16:19:59.651Z,67.15
2019-05-10T16:22:30.424Z,67.21
2019-05-10T16:25:02.814Z,67.16
2019-05-10T16:27:41.534Z,67.32
2019-05-10T16:30:11.912Z,67.45
2019-05-10T16:32:47.238Z,67.81
2019-05-10T16:35:18.307Z,67.73
2019-05-10T16:37:51.014Z,68.02
2019-05-10T16:40:26.536Z,68.24
2019-05-10T16:43:00.541Z,68.36
2019-05-10T16:45:33.255Z,68.59
2019-05-10T16:48:05.995Z,68.80
2019-05-10T16:50:39.086Z,69.05
2019-05-10T16:53:10.205Z,68.93
2019-05-10T16:55:42.943Z,68.89
2019-05-10T16:58:17.807Z,69.24
2019-05-10T17:00:50.962Z,68.98
2019-05-10T17:03:23.796Z,69.01
2019-05-10T17:05:58.683Z,69.25
2019-05-10T17:08:30.615Z,69.33
2019-05-10T17:11:09.631Z,69.48
2019-05-10T17:13:36.284Z,69.85
2019-05-10T17:16:11.689Z,70.02
2019-05-10T17:18:39.974Z,70.19
2019-05-10T17:21:11.048Z,70.14
2019-05-10T17:23:46.841Z,70.47
2019-05-10T17:26:19.772Z,71.31
2019-05-10T17:28:52.078Z,71.91
2019-05-10T17:31:24.871Z,72.20
2019-05-10T17:33:56.837Z,72.16
2019-05-10T17:36:27.912Z,71.84
2019-05-10T17:39:01.450Z,71.98
2019-05-10T17:41:32.683Z,72.10
2019-05-10T17:47:33.744Z,73.13
2019-05-10T17:50:07.761Z,73.11
2019-05-10T17:52:39.661Z,73.56
2019-05-10T17:55:16.484Z,73.67
2019-05-10T17:57:54.623Z,73.70
2019-05-10T18:08:51.703Z,74.72
2019-05-10T18:11:24.379Z,75.78
2019-05-10T18:14:01.058Z,75.70
2019-05-10T18:16:33.750Z,75.57
2019-05-10T18:19:04.964Z,74.70
2019-05-10T18:21:36.877Z,75.35
2019-05-10T18:24:36.308Z,75.44
2019-05-10T18:27:07.598Z,75.33
2019-05-10T18:29:38.681Z,75.04
2019-05-10T18:32:11.531Z,75.06
2019-05-10T18:34:42.686Z,75.27
2019-05-10T18:37:15.879Z,75.06
2019-05-10T18:39:52.899Z,75.64
2019-05-10T18:42:25.257Z,74.57
2019-05-10T18:44:54.490Z,74.12
2019-05-10T18:47:25.561Z,73.71
2019-05-10T18:49:56.632Z,73.46
2019-05-10T18:52:28.506Z,73.46
2019-05-10T18:54:59.554Z,73.40
2019-05-10T18:57:30.676Z,74.00
2019-05-10T19:00:03.726Z,74.13
2019-05-10T19:02:36.426Z,74.67
2019-05-10T19:05:09.295Z,75.15
2019-05-10T19:07:41.492Z,75.19
2019-05-10T19:10:12.622Z,75.04
2019-05-10T19:12:45.683Z,74.39
2019-05-10T19:15:17.071Z,74.43
2019-05-10T19:17:48.204Z,74.29
2019-05-10T19:20:19.428Z,73.87
2019-05-10T19:22:51.430Z,73.92
2019-05-10T19:25:22.502Z,73.68
2019-05-10T19:27:53.604Z,73.43
2019-05-10T19:30:24.681Z,73.49
2019-05-10T19:32:56.625Z,73.62
2019-05-10T19:35:29.765Z,73.29
2019-05-10T19:38:02.126Z,73.62
2019-05-10T19:40:34.036Z,74.34
2019-05-10T19:43:05.139Z,73.80
2019-05-10T19:45:36.162Z,73.74
2019-05-10T19:48:07.227Z,73.44
2019-05-10T19:50:38.764Z,73.26
2019-05-10T19:53:11.624Z,73.22
2019-05-10T19:55:42.671Z,73.21
2019-05-10T19:58:16.836Z,73.02
2019-05-10T20:00:51.126Z,72.96
2019-05-10T20:03:22.177Z,73.09
2019-05-10T20:05:53.403Z,73.04
2019-05-10T20:08:26.296Z,73.29
2019-05-10T20:10:57.454Z,73.35
2019-05-10T20:13:28.650Z,73.29
2019-05-10T20:16:01.718Z,73.43
2019-05-10T20:18:33.016Z,74.08
2019-05-10T20:21:04.135Z,73.90
2019-05-10T20:23:36.125Z,73.83
2019-05-10T20:26:07.409Z,74.02
2019-05-10T20:28:38.520Z,73.70
2019-05-10T20:31:09.663Z,73.57
2019-05-10T20:33:43.772Z,73.68
2019-05-10T20:36:14.950Z,74.20
2019-05-10T20:38:46.916Z,73.72
2019-05-10T20:41:19.057Z,73.58
2019-05-10T20:43:51.032Z,73.49
2019-05-10T20:46:22.308Z,73.48
2019-05-10T20:48:54.976Z,73.48
2019-05-10T20:51:27.701Z,73.46
2019-05-10T20:53:59.716Z,73.92
2019-05-10T20:56:31.909Z,74.56
2019-05-10T20:59:03.028Z,75.15
2019-05-10T21:01:34.334Z,74.82
2019-05-10T21:04:05.504Z,74.31
2019-05-10T21:06:36.681Z,74.07
2019-05-10T21:09:08.752Z,74.02
2019-05-10T21:11:39.905Z,74.03
2019-05-10T21:14:11.170Z,74.06
2019-05-10T21:16:42.261Z,74.23
2019-05-10T21:19:14.921Z,74.43
2019-05-10T21:21:46.051Z,74.58
2019-05-10T21:24:17.980Z,74.69
2019-05-10T21:26:50.651Z,75.18
2019-05-10T21:29:23.278Z,75.39
2019-05-10T21:31:54.456Z,75.63
2019-05-10T21:34:25.519Z,75.61
2019-05-10T21:36:57.993Z,75.76
2019-05-10T21:39:29.138Z,75.80
2019-05-10T21:42:00.176Z,75.93
2019-05-10T21:44:31.265Z,75.96
2019-05-10T21:47:03.818Z,76.09
2019-05-10T21:49:34.916Z,75.87
2019-05-10T21:52:05.986Z,75.88
2019-05-10T21:54:37.122Z,75.74
2019-05-10T21:57:08.182Z,75.78
2019-05-10T21:59:39.309Z,75.57
2019-05-10T22:02:10.369Z,75.70
2019-05-10T22:04:41.577Z,75.64
2019-05-10T22:07:16.867Z,75.73
2019-05-10T22:09:48.824Z,75.62
2019-05-10T22:12:19.893Z,75.51
2019-05-10T22:14:50.985Z,75.59
2019-05-10T22:17:22.061Z,75.50
2019-05-10T22:19:54.705Z,75.52
2019-05-10T22:22:25.857Z,75.72
2019-05-10T22:24:58.352Z,75.48
2019-05-10T22:27:29.386Z,75.45
2019-05-10T22:30:00.494Z,75.32
2019-05-10T22:32:31.652Z,75.29
2019-05-10T22:35:04.145Z,75.37
2019-05-10T22:37:35.358Z,75.64
2019-05-10T22:40:08.871Z,75.47
2019-05-10T22:42:39.896Z,75.42
2019-05-10T22:45:11.174Z,75.62
2019-05-10T22:47:42.224Z,76.00
2019-05-10T22:50:14.913Z,76.06
2019-05-10T22:52:47.540Z,76.51
2019-05-10T22:55:20.236Z,76.44
2019-05-10T22:57:51.446Z,76.68
2019-05-10T23:00:23.992Z,77.24
2019-05-10T23:02:55.026Z,77.06
2019-05-10T23:05:26.125Z,77.13
2019-05-10T23:07:58.671Z,77.21
2019-05-10T23:10:29.778Z,77.23
2019-05-10T23:13:00.824Z,77.61
2019-05-10T23:15:31.927Z,77.59
2019-05-10T23:18:02.962Z,77.88
2019-05-10T23:20:34.143Z,78.49
2019-05-10T23:23:05.208Z,79.09
2019-05-10T23:25:36.291Z,78.73
2019-05-10T23:28:07.332Z,79.40
2019-05-10T23:30:38.419Z,79.39
2019-05-10T23:33:09.448Z,79.43
2019-05-10T23:35:40.540Z,78.97
2019-05-10T23:38:11.612Z,79.55
2019-05-10T23:40:42.746Z,79.06
2019-05-10T23:43:14.600Z,79.52
2019-05-10T23:45:45.692Z,79.66
2019-05-10T23:48:16.817Z,79.85
2019-05-10T23:50:47.883Z,79.95
2019-05-10T23:53:18.944Z,80.13
2019-05-10T23:55:51.613Z,80.13
2019-05-10T23:58:22.688Z,79.92
